Time;durP1;ratioP1;P1;durP2;ratioP2;P2;SDS_P1;SDS_P2;PMS_P1;PMS_P2;Temp;Humidity;BMP_temperature;BMP_pressure;BME280_temperature;BME280_humidity;BME280_pressure;Samples;Min_cycle;Max_cycle;Signal;HPM_P1;HPM_P2
2022/05/13 00:00:12;;;;;;;11.93;2.28;;;;;;;11.16;62.73;101758.34;5053333;28;20037;-86
2022/05/13 00:02:39;;;;;;;17.27;2.85;;;;;;;11.13;62.98;101758.38;5050129;28;20032;-86
2022/05/13 00:05:06;;;;;;;9.90;2.47;;;;;;;11.08;63.44;101753.09;5035476;28;20024;-86
2022/05/13 00:07:32;;;;;;;16.48;2.67;;;;;;;10.98;63.98;101746.13;5028861;28;20068;-86
2022/05/13 00:09:59;;;;;;;6.93;2.25;;;;;;;10.98;64.29;101770.00;5055268;28;20144;-85
2022/05/13 00:12:27;;;;;;;8.23;2.60;;;;;;;10.89;64.63;101760.34;5055733;28;20055;-85
2022/05/13 00:14:53;;;;;;;13.70;2.53;;;;;;;10.90;65.56;101758.56;5039364;28;20040;-85
2022/05/13 00:17:20;;;;;;;12.38;3.00;;;;;;;10.89;64.93;101755.03;5055871;28;20052;-85
2022/05/13 00:19:46;;;;;;;11.43;2.58;;;;;;;10.84;65.34;101746.25;5019878;28;20055;-85
2022/05/13 00:22:12;;;;;;;12.30;2.70;;;;;;;10.82;65.83;101748.03;5035519;28;20033;-85
2022/05/13 00:24:39;;;;;;;9.30;2.78;;;;;;;10.76;66.08;101746.31;5035109;28;20610;-85
2022/05/13 00:27:05;;;;;;;12.13;2.92;;;;;;;10.72;65.91;101751.66;5001676;28;20040;-85
2022/05/13 00:29:30;;;;;;;9.02;2.42;;;;;;;10.66;66.38;101757.00;5018390;28;20036;-86
2022/05/13 00:31:56;;;;;;;18.30;3.00;;;;;;;10.60;66.74;101744.66;5018349;28;20064;-86
2022/05/13 00:34:21;;;;;;;9.57;2.55;;;;;;;10.57;66.17;101757.94;5035008;28;20393;-85
2022/05/13 00:36:47;;;;;;;10.90;3.00;;;;;;;10.48;67.03;101742.09;5035473;28;20025;-85
2022/05/13 00:39:13;;;;;;;15.27;3.20;;;;;;;10.45;67.34;101745.66;5035107;28;20059;-85
2022/05/13 00:41:39;;;;;;;11.25;2.55;;;;;;;10.46;67.33;101752.72;5035541;28;20025;-85
2022/05/13 00:44:05;;;;;;;9.55;2.30;;;;;;;10.38;67.44;101753.66;5054705;28;20452;-85
2022/05/13 00:46:31;;;;;;;13.00;3.30;;;;;;;10.39;68.13;101753.66;5019884;28;20037;-85
2022/05/13 00:48:59;;;;;;;13.32;2.90;;;;;;;10.36;67.19;101753.69;5039665;28;20064;-85
2022/05/13 00:51:41;;;;;;;11.48;2.95;;;;;;;10.37;67.17;101750.13;5014978;28;20396;-85
2022/05/13 00:54:11;;;;;;;10.75;2.55;;;;;;;10.32;67.48;101751.94;5014672;28;20123;-85
2022/05/13 00:56:37;;;;;;;13.38;2.90;;;;;;;10.31;67.91;101750.16;5014581;28;20494;-85
2022/05/13 00:59:06;;;;;;;7.25;2.90;;;;;;;10.23;68.11;101746.66;4982461;28;20146;-85
2022/05/13 01:01:33;;;;;;;11.32;2.67;;;;;;;10.24;68.02;101756.38;5002571;28;20052;-85
2022/05/13 01:04:04;;;;;;;11.10;2.58;;;;;;;10.19;67.65;101742.25;5020831;28;20124;-85
2022/05/13 01:06:31;;;;;;;8.32;2.80;;;;;;;10.15;68.85;101753.75;5015834;28;20041;-85
2022/05/13 01:08:57;;;;;;;14.07;2.70;;;;;;;10.06;69.30;101752.03;5017736;28;20039;-85
2022/05/13 01:11:29;;;;;;;10.73;2.65;;;;;;;10.00;68.86;101749.44;5033872;28;20017;-85
2022/05/13 01:14:02;;;;;;;12.35;3.22;;;;;;;10.02;69.12;101748.53;5034230;28;20033;-85
2022/05/13 01:16:28;;;;;;;14.40;2.80;;;;;;;10.01;69.13;101740.59;5034158;28;20076;-85
2022/05/13 01:18:54;;;;;;;10.25;2.70;;;;;;;9.97;69.07;101750.31;5014378;28;20468;-84
2022/05/13 01:21:26;;;;;;;10.15;2.65;;;;;;;9.89;69.27;101736.22;4997642;28;20389;-84
2022/05/13 01:23:53;;;;;;;10.32;3.10;;;;;;;9.91;69.56;101745.03;5014104;28;20071;-84
2022/05/13 01:26:25;;;;;;;15.00;3.58;;;;;;;9.87;69.35;101749.50;4997882;28;20045;-84
2022/05/13 01:28:53;;;;;;;10.80;3.05;;;;;;;9.82;69.41;101742.47;5030237;28;20044;-85
2022/05/13 01:31:26;;;;;;;12.48;3.20;;;;;;;9.79;69.74;101742.44;4997689;28;20124;-85
2022/05/13 01:33:52;;;;;;;9.43;3.28;;;;;;;9.75;70.55;101738.97;5030536;28;20056;-84
2022/05/13 01:36:18;;;;;;;16.38;3.55;;;;;;;9.75;70.21;101741.59;5013531;28;20037;-85
2022/05/13 01:38:44;;;;;;;9.68;2.90;;;;;;;9.69;70.31;101734.56;5013771;28;20103;-85
2022/05/13 01:41:11;;;;;;;8.32;2.63;;;;;;;9.72;70.15;101746.91;5047872;28;20021;-84
2022/05/13 01:43:39;;;;;;;11.13;3.10;;;;;;;9.72;70.90;101746.91;5017040;28;20028;-85
2022/05/13 01:46:05;;;;;;;12.18;3.03;;;;;;;9.74;70.80;101755.69;5033446;28;20043;-84
2022/05/13 01:48:31;;;;;;;14.85;3.20;;;;;;;9.76;70.76;101756.56;5024924;28;20053;-85
2022/05/13 01:50:57;;;;;;;11.93;3.10;;;;;;;9.72;70.98;101752.19;5036061;28;20028;-85
2022/05/13 01:53:23;;;;;;;15.20;2.90;;;;;;;9.75;71.12;101756.59;5053272;28;20093;-85
2022/05/13 01:55:48;;;;;;;14.00;3.33;;;;;;;9.72;70.82;101740.72;5036662;28;20039;-85
2022/05/13 01:58:20;;;;;;;13.55;3.72;;;;;;;9.73;70.79;101751.31;5053374;28;20464;-85
2022/05/13 02:00:48;;;;;;;13.05;2.97;;;;;;;9.68;70.65;101748.66;5048227;28;20033;-85
2022/05/13 02:05:58;;;;;;;9.18;3.03;;;;;;;9.72;71.04;101752.19;5033126;28;20446;-84
2022/05/13 02:08:24;;;;;;;13.10;3.22;;;;;;;9.66;70.83;101747.78;5033336;28;20044;-85
2022/05/13 02:10:53;;;;;;;8.85;3.03;;;;;;;9.63;70.83;101739.00;5036566;28;20507;-85
2022/05/13 02:13:19;;;;;;;13.07;3.20;;;;;;;9.67;71.07;101746.94;5037055;28;20407;-85
2022/05/13 02:15:44;;;;;;;15.05;3.38;;;;;;;9.62;71.02;101730.19;5053197;28;20040;-85
2022/05/13 02:18:10;;;;;;;14.68;3.20;;;;;;;9.56;70.88;101730.19;5053402;28;20048;-85
2022/05/13 02:20:37;;;;;;;11.55;3.15;;;;;;;9.59;71.31;101742.53;5019077;28;20554;-85
2022/05/13 02:23:03;;;;;;;11.50;2.95;;;;;;;9.56;71.22;101740.78;5033022;28;20118;-85
2022/05/13 02:25:32;;;;;;;14.35;2.83;;;;;;;9.50;70.70;101734.66;5017238;28;20064;-86
2022/05/13 02:27:58;;;;;;;8.88;2.72;;;;;;;9.52;70.94;101741.69;5021489;28;20056;-86
2022/05/13 02:30:25;;;;;;;10.23;2.88;;;;;;;9.55;71.42;101754.91;5032422;28;20036;-86
2022/05/13 02:32:51;;;;;;;14.45;3.85;;;;;;;9.52;71.26;101744.34;5049311;28;20037;-85
2022/05/13 02:35:16;;;;;;;11.38;3.42;;;;;;;9.48;72.47;101732.88;4984424;28;20071;-86
2022/05/13 02:37:42;;;;;;;11.02;2.72;;;;;;;9.54;71.85;101741.66;5051014;28;20068;-85
2022/05/13 02:40:08;;;;;;;15.43;3.05;;;;;;;9.57;71.32;101745.19;5025072;28;20037;-85
2022/05/13 02:42:34;;;;;;;12.18;3.58;;;;;;;9.55;71.95;101741.69;5036016;28;20498;-85
2022/05/13 02:45:00;;;;;;;9.60;3.10;;;;;;;9.57;72.44;101747.84;5053036;28;20058;-86
2022/05/13 02:47:26;;;;;;;13.55;2.90;;;;;;;9.61;71.99;101732.84;5070591;28;20145;-86
2022/05/13 02:50:17;;;;;;;11.95;3.45;;;;;;;9.61;72.49;101736.34;5069452;28;20040;-86
2022/05/13 02:52:37;;;;;;;19.38;4.00;;;;;;;9.60;72.51;101744.31;5038840;28;20166;-85
2022/05/13 02:55:04;;;;;;;18.30;3.10;;;;;;;9.63;72.74;101739.88;5019546;28;20033;-86
2022/05/13 02:57:29;;;;;;;15.30;4.07;;;;;;;9.63;72.91;101746.94;5036211;28;20507;-85
2022/05/13 02:59:55;;;;;;;10.82;3.53;;;;;;;9.59;72.99;101737.25;5052104;28;20119;-85
2022/05/13 03:02:21;;;;;;;13.48;3.80;;;;;;;9.64;73.18;101735.47;5059168;28;20044;-86
2022/05/13 03:04:47;;;;;;;13.15;3.50;;;;;;;9.66;73.42;101747.78;5039486;28;20332;-85
2022/05/13 03:07:13;;;;;;;14.70;4.47;;;;;;;9.66;73.99;101747.78;5019862;28;20086;-85
2022/05/13 03:09:38;;;;;;;13.00;3.72;;;;;;;9.69;74.04;101746.91;5019168;28;20044;-85
2022/05/13 03:12:05;;;;;;;15.82;4.40;;;;;;;9.68;74.12;101743.38;5018786;28;20036;-85
2022/05/13 03:14:30;;;;;;;15.50;4.20;;;;;;;9.67;73.88;101738.13;5019452;28;20033;-85
2022/05/13 03:16:56;;;;;;;16.52;4.20;;;;;;;9.71;74.16;101734.56;5043772;28;20025;-85
2022/05/13 03:19:21;;;;;;;15.73;4.15;;;;;;;9.72;74.24;101720.47;5019769;28;20036;-85
2022/05/13 03:21:47;;;;;;;15.10;4.40;;;;;;;9.75;74.84;101727.50;5019972;28;20040;-85
2022/05/13 03:24:12;;;;;;;13.63;4.88;;;;;;;9.73;74.63;101724.84;5022178;28;20384;-85
2022/05/13 03:26:38;;;;;;;21.70;3.83;;;;;;;9.76;74.54;101727.47;5038637;28;20365;-85
2022/05/13 03:29:04;;;;;;;14.00;5.30;;;;;;;9.69;74.89;101721.34;5003090;28;20119;-85
2022/05/13 03:31:34;;;;;;;19.40;4.20;;;;;;;9.73;74.73;101721.34;5022287;28;20024;-85
2022/05/13 03:33:59;;;;;;;14.02;4.03;;;;;;;9.73;74.88;101730.13;5044044;28;20111;-85
2022/05/13 03:36:25;;;;;;;15.55;3.95;;;;;;;9.70;75.05;101730.16;5035896;28;20031;-87
2022/05/13 03:38:50;;;;;;;18.27;4.55;;;;;;;9.67;75.24;101719.59;5019282;28;20354;-86
2022/05/13 03:41:16;;;;;;;12.63;3.90;;;;;;;9.67;75.38;101727.53;5036555;28;20051;-86
2022/05/13 03:43:42;;;;;;;16.83;3.92;;;;;;;9.68;74.83;101729.28;5038366;28;20086;-87
2022/05/13 03:46:07;;;;;;;17.17;4.43;;;;;;;9.64;75.14;101723.13;5019471;28;20477;-87
2022/05/13 03:48:33;;;;;;;13.88;4.20;;;;;;;9.66;74.76;101723.13;5035554;28;20472;-86
2022/05/13 03:50:58;;;;;;;19.45;5.35;;;;;;;9.67;75.23;101727.53;5019099;28;20025;-86
2022/05/13 03:53:24;;;;;;;16.50;4.15;;;;;;;9.61;75.62;101719.59;5038229;28;20424;-86
2022/05/13 03:55:50;;;;;;;19.70;4.30;;;;;;;9.66;75.60;101723.97;5037710;28;20356;-85
2022/05/13 03:58:15;;;;;;;14.60;3.72;;;;;;;9.67;75.43;101733.69;5038382;28;20024;-86
2022/05/13 04:00:42;;;;;;;16.05;4.20;;;;;;;9.60;76.40;101731.97;5037448;28;20033;-86
2022/05/13 04:03:08;;;;;;;15.38;4.70;;;;;;;9.58;76.01;101724.91;5035467;28;20039;-86
2022/05/13 04:11:14;;;;;;;15.90;4.07;;;;;;;9.57;76.85;101731.97;5024949;28;20051;-86
2022/05/13 04:16:23;;;;;;;17.25;5.72;;;;;;;9.60;77.40;101731.97;5023678;28;20075;-86
2022/05/13 04:18:50;;;;;;;16.48;4.55;;;;;;;9.56;77.22;101724.03;5037764;28;20435;-87
2022/05/13 04:21:19;;;;;;;16.92;4.68;;;;;;;9.56;77.10;101731.97;5037600;28;20032;-88
2022/05/13 04:23:47;;;;;;;16.00;4.85;;;;;;;9.59;76.73;101730.19;5055909;28;20329;-88
2022/05/13 04:26:16;;;;;;;14.43;4.18;;;;;;;9.56;76.86;101719.63;5054477;28;20039;-87
2022/05/13 04:28:44;;;;;;;17.23;4.93;;;;;;;9.62;77.24;101731.97;5059939;28;20440;-88
2022/05/13 04:31:11;;;;;;;16.92;4.65;;;;;;;9.62;77.87;101737.25;5040144;28;20124;-87
2022/05/13 04:33:38;;;;;;;11.43;4.57;;;;;;;9.58;77.86;101735.50;5021234;28;20383;-86
2022/05/13 04:36:04;;;;;;;19.15;4.78;;;;;;;9.59;77.99;101737.25;5037379;28;20119;-86
2022/05/13 04:38:30;;;;;;;16.63;4.70;;;;;;;9.64;78.01;101746.94;5018056;28;20401;-87
2022/05/13 04:40:55;;;;;;;24.92;5.43;;;;;;;9.61;78.46;101749.56;5018171;28;20029;-87
2022/05/13 04:43:22;;;;;;;20.23;4.85;;;;;;;9.68;78.04;101761.91;5051450;28;20016;-88
2022/05/13 04:45:48;;;;;;;15.48;4.60;;;;;;;9.69;78.11;101763.69;5034431;28;20040;-89
2022/05/13 04:48:16;;;;;;;13.52;4.97;;;;;;;9.79;78.06;101761.88;5017874;28;20045;-86
2022/05/13 04:50:50;;;;;;;21.42;5.40;;;;;;;9.82;78.08;101756.56;5017994;28;20041;-87
2022/05/13 04:53:22;;;;;;;18.65;4.80;;;;;;;9.88;77.94;101761.81;5051220;28;20047;-88
2022/05/13 04:55:50;;;;;;;11.43;4.20;;;;;;;10.01;77.47;101765.28;5034412;28;20025;-87
2022/05/13 04:58:16;;;;;;;14.13;4.85;;;;;;;10.03;77.33;101773.22;5051152;28;20158;-89
2022/05/13 05:00:42;;;;;;;15.15;4.60;;;;;;;10.06;77.44;101766.16;5020767;28;20483;-87
2022/05/13 05:03:07;;;;;;;15.55;4.75;;;;;;;10.08;77.50;101779.38;5053832;28;20028;-88
2022/05/13 05:05:34;;;;;;;18.10;4.95;;;;;;;10.18;77.14;101791.66;5054485;28;20113;-88
2022/05/13 05:08:00;;;;;;;15.43;5.30;;;;;;;10.20;77.29;101776.66;5050716;28;20071;-88
2022/05/13 05:10:26;;;;;;;27.55;5.90;;;;;;;10.20;76.75;101778.44;5017590;28;20492;-88
2022/05/13 05:13:01;;;;;;;18.08;5.85;;;;;;;10.22;77.07;101780.19;5018172;28;20360;-87
2022/05/13 05:15:29;;;;;;;18.67;5.50;;;;;;;10.22;77.30;101780.19;5017744;28;20079;-87
2022/05/13 05:17:55;;;;;;;17.52;5.03;;;;;;;10.29;76.80;101778.44;5034249;28;20078;-88
2022/05/13 05:20:22;;;;;;;18.48;5.25;;;;;;;10.37;76.99;101799.56;5049739;28;20044;-88
2022/05/13 05:22:48;;;;;;;19.25;5.45;;;;;;;10.31;76.93;101790.78;5037250;28;20040;-88
2022/05/13 05:25:15;;;;;;;16.48;4.63;;;;;;;10.35;77.00;101788.97;5036894;28;20063;-88
2022/05/13 05:27:41;;;;;;;22.85;5.65;;;;;;;10.40;76.84;101807.47;5053783;28;20028;-88
2022/05/13 05:30:11;;;;;;;15.25;5.18;;;;;;;10.41;77.09;101804.84;5042454;28;20122;-89
2022/05/13 05:32:38;;;;;;;18.02;4.85;;;;;;;10.43;77.14;101795.09;5037116;28;20051;-87
2022/05/13 05:35:06;;;;;;;16.25;5.13;;;;;;;10.50;77.30;101809.19;5037161;28;20438;-88
2022/05/13 05:37:33;;;;;;;18.30;5.25;;;;;;;10.52;76.97;101815.34;5032650;28;20448;-89
2022/05/13 05:39:59;;;;;;;26.90;5.68;;;;;;;10.59;76.65;101814.44;5046846;28;20561;-88
2022/05/13 05:42:24;;;;;;;23.45;6.57;;;;;;;10.60;76.70;101810.00;5070244;28;20480;-88
2022/05/13 05:44:50;;;;;;;25.30;5.88;;;;;;;10.68;76.93;101822.31;5053529;28;20025;-88
2022/05/13 05:47:16;;;;;;;15.75;4.88;;;;;;;10.66;76.63;101809.97;5071578;28;20040;-89
2022/05/13 05:49:42;;;;;;;20.63;6.28;;;;;;;10.72;76.69;101816.09;5035350;28;20052;-89
2022/05/13 05:52:09;;;;;;;19.20;4.85;;;;;;;10.78;76.55;101817.84;5033518;28;20116;-86
2022/05/13 05:57:21;;;;;;;19.25;5.60;;;;;;;10.93;76.52;101833.63;5033423;28;20122;-82
2022/05/13 05:59:48;;;;;;;17.17;5.03;;;;;;;10.97;76.03;101835.34;5017384;28;20422;-80
2022/05/13 06:02:14;;;;;;;22.27;5.75;;;;;;;11.02;76.20;101832.66;5014213;28;20072;-81
2022/05/13 06:04:40;;;;;;;14.95;5.22;;;;;;;11.08;75.82;101845.00;5013446;28;20126;-81
2022/05/13 06:07:13;;;;;;;20.05;5.43;;;;;;;11.13;75.77;101830.81;5020916;28;20025;-80
2022/05/13 06:09:40;;;;;;;19.88;5.75;;;;;;;11.24;75.00;101838.66;5033240;28;20354;-80
2022/05/13 06:12:07;;;;;;;16.45;5.03;;;;;;;11.29;75.31;101838.63;5033356;28;20044;-80
2022/05/13 06:14:34;;;;;;;21.40;5.78;;;;;;;11.33;75.40;101843.03;5000787;28;20067;-81
2022/05/13 06:17:00;;;;;;;14.88;5.50;;;;;;;11.36;75.12;101846.53;5017111;28;20021;-84
2022/05/13 06:19:26;;;;;;;20.58;5.68;;;;;;;11.42;75.56;101858.84;5024643;28;20026;-84
2022/05/13 06:21:52;;;;;;;21.50;6.05;;;;;;;11.47;75.26;101856.16;5013281;28;20434;-83
2022/05/13 06:24:18;;;;;;;19.58;6.10;;;;;;;11.49;75.22;101855.22;5013830;28;20044;-84
2022/05/13 06:26:48;;;;;;;16.10;5.70;;;;;;;11.52;74.96;101855.22;4996932;28;20538;-84
2022/05/13 06:29:23;;;;;;;21.27;5.97;;;;;;;11.61;75.02;101854.25;5013341;28;20125;-84
2022/05/13 06:31:49;;;;;;;20.52;5.72;;;;;;;11.68;74.67;101853.28;5029866;28;20258;-84
2022/05/13 06:34:15;;;;;;;17.00;6.32;;;;;;;11.76;74.95;101861.16;5030914;28;20091;-84
2022/05/13 06:36:41;;;;;;;17.33;6.03;;;;;;;11.86;74.36;101867.25;5035329;28;20079;-84
2022/05/13 06:39:07;;;;;;;27.75;7.22;;;;;;;11.94;74.39;101865.44;5037606;28;20048;-84
2022/05/13 06:41:37;;;;;;;22.08;6.82;;;;;;;11.92;74.57;101873.44;5021287;28;20045;-84
2022/05/13 06:44:07;;;;;;;20.58;7.45;;;;;;;12.02;74.48;101871.56;5055708;28;20068;-84
2022/05/13 06:46:38;;;;;;;20.98;6.65;;;;;;;12.13;74.03;101868.75;5021193;28;20424;-84
2022/05/13 06:49:05;;;;;;;27.25;6.30;;;;;;;12.22;73.42;101874.84;5050053;28;20056;-85
2022/05/13 06:51:32;;;;;;;19.73;6.25;;;;;;;12.29;73.17;101872.09;5024308;28;20387;-85
2022/05/13 06:54:04;;;;;;;22.65;6.10;;;;;;;12.33;73.51;101868.50;5040759;28;20098;-85
2022/05/13 06:56:35;;;;;;;25.15;6.78;;;;;;;12.39;73.12;101879.94;5041785;28;20063;-86
2022/05/13 06:59:02;;;;;;;23.67;7.07;;;;;;;12.48;72.53;101860.34;5057464;28;20467;-85
2022/05/13 07:01:28;;;;;;;18.00;5.90;;;;;;;12.56;73.11;101869.09;5057271;28;20099;-84
2022/05/13 07:03:54;;;;;;;22.40;6.20;;;;;;;12.65;72.55;101868.06;5075488;28;20177;-85
2022/05/13 07:06:20;;;;;;;22.17;6.88;;;;;;;12.79;72.66;101881.19;5057053;28;20072;-84
2022/05/13 07:08:46;;;;;;;16.70;6.40;;;;;;;13.00;71.85;101877.31;5057335;28;20036;-85
2022/05/13 07:11:12;;;;;;;26.70;6.15;;;;;;;13.11;70.42;101880.69;5040643;28;20037;-86
2022/05/13 07:13:39;;;;;;;18.40;6.63;;;;;;;13.20;70.31;101871.69;5024364;28;20402;-84
2022/05/13 07:16:05;;;;;;;25.08;5.97;;;;;;;13.28;69.56;101869.81;5040441;28;20044;-83
2022/05/13 07:18:30;;;;;;;18.80;5.75;;;;;;;13.37;69.96;101869.66;5039879;28;20037;-84
2022/05/13 07:20:56;;;;;;;24.35;6.47;;;;;;;13.52;69.30;101864.06;5039587;28;20044;-85
2022/05/13 07:23:21;;;;;;;18.42;5.88;;;;;;;13.64;69.08;101867.41;5056166;28;20029;-85
2022/05/13 07:25:47;;;;;;;17.38;5.65;;;;;;;13.75;68.16;101870.75;5056262;28;20063;-84
2022/05/13 07:28:12;;;;;;;16.50;5.70;;;;;;;13.86;67.83;101867.91;5055978;28;20082;-86
2022/05/13 07:30:38;;;;;;;17.77;5.20;;;;;;;13.91;66.44;101874.00;5039376;28;20037;-85
2022/05/13 07:33:04;;;;;;;13.80;4.82;;;;;;;13.91;66.85;101874.88;5039318;28;20047;-85
2022/05/13 07:35:30;;;;;;;16.55;5.38;;;;;;;13.93;66.23;101880.19;5039283;28;20044;-85
2022/05/13 07:37:56;;;;;;;18.85;5.97;;;;;;;14.08;66.46;101876.34;5039645;28;20139;-85
2022/05/13 07:43:06;;;;;;;19.00;5.65;;;;;;;14.29;66.13;101901.66;5058658;28;20040;-84
2022/05/13 07:45:32;;;;;;;13.85;4.85;;;;;;;14.20;65.24;101881.44;5055798;28;20034;-85
2022/05/13 07:48:01;;;;;;;20.00;5.22;;;;;;;14.22;65.58;101895.59;5069036;28;20111;-84
2022/05/13 07:50:27;;;;;;;16.27;4.85;;;;;;;14.23;65.31;101885.81;5036128;28;20408;-84
2022/05/13 07:52:53;;;;;;;18.50;5.22;;;;;;;14.17;64.51;101890.34;5052706;28;20090;-85
2022/05/13 07:55:19;;;;;;;13.35;4.25;;;;;;;14.19;64.99;101891.22;5019442;28;20389;-85
2022/05/13 07:57:47;;;;;;;18.08;4.57;;;;;;;14.13;65.63;101883.31;5019598;28;20037;-85
2022/05/13 08:00:32;;;;;;;14.98;4.15;;;;;;;14.13;65.22;101893.97;5051644;28;20128;-85
2022/05/13 08:03:04;;;;;;;14.50;3.80;;;;;;;13.99;64.77;101885.38;5017533;28;20044;-86
2022/05/13 08:05:40;;;;;;;13.73;3.53;;;;;;;13.89;64.61;101897.13;5035748;28;20098;-86
2022/05/13 08:08:14;;;;;;;12.88;4.05;;;;;;;13.87;65.38;101896.25;5037132;28;20076;-85
2022/05/13 08:10:45;;;;;;;11.10;3.80;;;;;;;13.85;65.97;101898.09;5033334;28;20080;-84
2022/05/13 08:13:11;;;;;;;16.33;4.35;;;;;;;13.88;65.91;101901.56;5033418;28;20492;-85
2022/05/13 08:15:38;;;;;;;13.27;4.40;;;;;;;13.86;65.25;101899.84;4983109;28;20204;-86
2022/05/13 08:18:04;;;;;;;26.25;4.53;;;;;;;13.86;65.23;101906.03;5015428;28;20108;-85
2022/05/13 08:20:30;;;;;;;15.80;4.03;;;;;;;13.86;64.64;101899.84;5050909;28;20090;-85
2022/05/13 08:22:57;;;;;;;23.27;4.25;;;;;;;13.92;64.33;101903.28;5019177;28;20064;-85
2022/05/13 08:25:23;;;;;;;12.50;4.00;;;;;;;13.94;64.57;101914.75;5018505;28;20103;-85
2022/05/13 08:27:49;;;;;;;16.35;4.35;;;;;;;13.97;64.41;101914.72;5002280;28;20041;-86
2022/05/13 08:30:16;;;;;;;16.20;4.22;;;;;;;14.05;64.24;101909.25;5038610;28;20033;-86
2022/05/13 08:32:41;;;;;;;13.75;4.38;;;;;;;14.16;63.72;101912.56;5031574;28;20021;-84
2022/05/13 08:35:07;;;;;;;17.50;3.72;;;;;;;14.21;64.34;101909.81;5015122;28;20044;-85
2022/05/13 08:37:40;;;;;;;12.02;3.30;;;;;;;14.40;63.58;101907.66;5014789;28;20044;-85
2022/05/13 08:40:07;;;;;;;17.95;4.18;;;;;;;14.45;62.25;101915.56;5032690;28;20366;-85
2022/05/13 08:42:43;;;;;;;19.92;3.70;;;;;;;14.40;61.97;101913.84;5031431;28;20562;-84
2022/05/13 08:45:10;;;;;;;13.68;3.50;;;;;;;14.22;62.75;101921.34;5032420;28;20458;-85
2022/05/13 08:47:50;;;;;;;10.30;3.40;;;;;;;14.14;62.92;101919.72;5031233;28;20101;-85
2022/05/13 08:50:37;;;;;;;16.15;3.55;;;;;;;14.06;62.85;101918.97;5034033;28;20056;-85
2022/05/13 08:53:21;;;;;;;13.55;3.05;;;;;;;14.07;62.75;101927.84;5052283;28;20053;-84
2022/05/13 08:56:08;;;;;;;10.82;3.40;;;;;;;14.01;62.71;101928.84;5034344;28;20029;-85
2022/05/13 08:59:02;;;;;;;22.38;5.03;;;;;;;14.01;62.73;101931.50;5034065;28;20143;-85
2022/05/13 09:01:38;;;;;;;13.55;3.83;;;;;;;14.03;63.04;101927.03;5034003;28;20047;-84
2022/05/13 09:04:22;;;;;;;17.70;3.90;;;;;;;14.18;63.34;101926.72;5050524;28;20036;-84
2022/05/13 09:07:12;;;;;;;18.73;4.18;;;;;;;14.47;62.55;101935.06;5036736;28;20028;-85
2022/05/13 09:09:42;;;;;;;15.50;3.20;;;;;;;14.70;61.70;101932.81;5034007;28;20052;-85
2022/05/13 09:12:22;;;;;;;14.05;3.25;;;;;;;15.07;59.29;101939.13;5050731;28;20445;-86
2022/05/13 09:14:59;;;;;;;18.17;3.58;;;;;;;15.27;58.58;101927.06;5051973;28;21151;-86
2022/05/13 09:17:31;;;;;;;13.35;3.50;;;;;;;15.48;58.00;101925.66;5033801;28;20025;-86
2022/05/13 09:20:10;;;;;;;12.13;3.15;;;;;;;15.55;56.56;101920.16;5051902;28;20041;-85
2022/05/13 09:22:41;;;;;;;8.70;3.30;;;;;;;15.55;57.48;101930.84;5051871;28;20052;-86
2022/05/13 09:25:16;;;;;;;14.02;3.35;;;;;;;15.56;57.19;101911.25;5033644;28;20127;-87
2022/05/13 09:27:56;;;;;;;10.30;3.15;;;;;;;15.74;57.38;101923.28;5033803;28;20040;-85
2022/05/13 09:30:28;;;;;;;9.77;3.13;;;;;;;16.03;54.91;101936.72;5048680;28;20132;-86
2022/05/13 09:32:54;;;;;;;13.00;3.88;;;;;;;16.26;54.44;101932.53;5037052;28;20119;-85
2022/05/13 09:35:35;;;;;;;8.15;2.33;;;;;;;16.47;53.19;101941.75;5070247;28;20411;-87
2022/05/13 09:38:19;;;;;;;15.65;3.03;;;;;;;16.62;51.14;101938.63;5053359;28;20123;-86
2022/05/13 09:40:57;;;;;;;6.57;2.40;;;;;;;16.50;51.67;101941.66;5053459;28;20047;-86
2022/05/13 09:43:34;;;;;;;8.63;2.28;;;;;;;16.55;51.60;101937.94;5070123;28;20032;-85
2022/05/13 09:46:24;;;;;;;12.93;2.70;;;;;;;16.73;51.20;101939.16;5053531;28;20068;-86
2022/05/13 09:49:12;;;;;;;7.93;2.75;;;;;;;16.99;50.38;101945.56;5070896;28;20476;-86
2022/05/13 09:51:52;;;;;;;14.27;3.20;;;;;;;17.15;49.86;101933.44;5018467;28;20519;-87
2022/05/13 09:54:31;;;;;;;11.77;2.85;;;;;;;17.09;49.19;101938.13;5017319;28;20133;-85
2022/05/13 09:57:14;;;;;;;12.38;2.45;;;;;;;16.90;49.22;101940.50;5033334;28;20465;-86
2022/05/13 09:59:51;;;;;;;8.82;1.98;;;;;;;16.97;48.39;101929.56;5033351;28;20028;-85
2022/05/13 10:02:25;;;;;;;6.38;1.92;;;;;;;17.01;48.54;101933.00;4998519;28;20041;-86
2022/05/13 10:05:10;;;;;;;10.13;2.67;;;;;;;17.07;48.52;101934.63;5013335;28;20033;-85
2022/05/13 10:07:45;;;;;;;8.07;2.03;;;;;;;17.11;47.84;101930.91;5022455;28;20504;-84
2022/05/13 10:15:56;;;;;;;10.77;2.35;;;;;;;16.93;48.50;101938.59;5013337;28;20029;-85
2022/05/13 10:18:32;;;;;;;10.98;2.38;;;;;;;17.02;49.12;101944.59;5013554;28;20029;-84
2022/05/13 10:21:05;;;;;;;11.38;2.47;;;;;;;16.88;47.92;101932.50;5030227;28;20048;-84
2022/05/13 10:23:58;;;;;;;10.10;2.20;;;;;;;16.86;48.97;101941.50;5013317;28;20044;-85
2022/05/13 10:26:38;;;;;;;11.85;2.45;;;;;;;16.88;49.00;101928.97;5024630;28;20485;-85
2022/05/13 10:29:19;;;;;;;10.30;2.35;;;;;;;16.92;48.79;101941.34;5029642;28;20532;-85
2022/05/13 10:31:46;;;;;;;10.82;2.03;;;;;;;17.03;48.25;101939.19;5030063;28;20037;-85
2022/05/13 10:34:29;;;;;;;11.52;2.60;;;;;;;16.96;47.01;101938.53;5013320;28;20064;-84
2022/05/13 10:37:17;;;;;;;12.60;2.20;;;;;;;16.96;47.65;101934.94;5031165;28;20021;-85
2022/05/13 10:39:59;;;;;;;13.90;2.50;;;;;;;16.83;47.58;101938.94;5013261;28;20053;-84
2022/05/13 10:42:34;;;;;;;11.40;2.42;;;;;;;16.85;48.98;101937.09;5031203;28;20168;-85
2022/05/13 10:45:25;;;;;;;9.65;2.60;;;;;;;16.84;49.06;101944.25;5029633;28;20040;-84
2022/05/13 10:48:11;;;;;;;8.38;2.63;;;;;;;16.86;48.41;101950.41;4987752;28;20060;-84
2022/05/13 10:50:58;;;;;;;14.50;3.10;;;;;;;16.87;48.20;101954.84;5044949;28;20450;-84
2022/05/13 10:53:32;;;;;;;12.88;2.97;;;;;;;16.79;48.24;101943.53;5049651;28;20067;-85
2022/05/13 10:56:17;;;;;;;6.55;2.33;;;;;;;16.72;48.03;101944.59;5049632;28;20393;-84
2022/05/13 10:59:00;;;;;;;13.82;3.60;;;;;;;16.80;48.82;101947.94;5050706;28;20029;-85
2022/05/13 11:01:55;;;;;;;7.43;1.85;;;;;;;16.91;48.65;101939.56;5055001;28;20110;-85
2022/05/13 11:04:41;;;;;;;6.78;2.25;;;;;;;17.21;48.49;101943.09;5052343;28;20045;-86
2022/05/13 11:07:21;;;;;;;10.15;2.83;;;;;;;17.35;47.98;101935.47;5049459;28;20025;-85
2022/05/13 11:09:50;;;;;;;9.98;2.80;;;;;;;17.47;47.94;101939.56;5032602;28;20037;-85
2022/05/13 11:12:28;;;;;;;9.38;1.58;;;;;;;17.51;44.35;101935.88;5033013;28;20044;-85
2022/05/13 11:15:19;;;;;;;7.32;1.70;;;;;;;17.55;44.95;101942.84;5032600;28;20053;-85
2022/05/13 11:17:50;;;;;;;6.05;1.80;;;;;;;17.74;44.38;101950.28;5032901;28;20132;-84
2022/05/13 11:20:21;;;;;;;8.75;1.63;;;;;;;17.92;44.79;101948.78;5032735;28;20049;-85
2022/05/13 11:23:00;;;;;;;10.60;2.15;;;;;;;18.20;45.14;101938.84;5051037;28;20045;-85
2022/05/13 11:26:08;;;;;;;8.95;1.80;;;;;;;18.62;43.71;101932.81;5020029;28;20033;-86
2022/05/13 11:28:54;;;;;;;8.60;2.17;;;;;;;18.66;43.00;101934.44;5036301;28;20033;-86
2022/05/13 11:32:08;;;;;;;8.35;1.95;;;;;;;18.34;42.49;101930.28;5073025;28;20048;-84
2022/05/13 11:34:55;;;;;;;13.63;2.13;;;;;;;17.99;43.84;101936.94;5046903;28;20059;-85
2022/05/13 11:37:21;;;;;;;14.15;2.35;;;;;;;17.79;44.36;101938.47;5055920;28;20036;-85
2022/05/13 11:39:56;;;;;;;12.10;1.92;;;;;;;17.68;44.38;101937.06;5039551;28;20476;-86
2022/05/13 11:45:59;;;;;;;9.02;2.97;;;;;;;18.00;44.50;101931.53;5073896;28;20036;-86
2022/05/13 11:48:29;;;;;;;5.57;1.70;;;;;;;18.36;43.78;101933.78;5027847;28;20045;-86
2022/05/13 11:51:16;;;;;;;7.72;1.85;;;;;;;18.60;42.45;101931.13;5038206;28;20495;-85
2022/05/13 11:53:44;;;;;;;4.78;1.20;;;;;;;18.77;41.21;101939.44;5035997;28;20025;-88
2022/05/13 11:56:29;;;;;;;8.52;1.92;;;;;;;18.79;41.50;101934.91;5053853;28;20147;-86
2022/05/13 11:59:03;;;;;;;8.80;2.25;;;;;;;19.08;41.46;101930.16;5052367;28;20520;-85
2022/05/13 12:01:35;;;;;;;6.97;1.83;;;;;;;19.29;40.57;101929.31;5042833;28;20370;-86